sensor_id;sensor_type;location;lat;lon;timestamp;P1;durP1;ratioP1;P2;durP2;ratioP2
34499;SDS011;20745;50.882;6.962;2023-02-23T00:01:51;64.32;;;41.72;;
34499;SDS011;20745;50.882;6.962;2023-02-23T00:04:17;63.60;;;42.00;;
34499;SDS011;20745;50.882;6.962;2023-02-23T00:06:44;68.40;;;41.45;;
34499;SDS011;20745;50.882;6.962;2023-02-23T00:09:11;69.18;;;42.67;;
34499;SDS011;20745;50.882;6.962;2023-02-23T00:11:49;65.35;;;41.40;;
34499;SDS011;20745;50.882;6.962;2023-02-23T00:14:26;67.90;;;41.65;;
34499;SDS011;20745;50.882;6.962;2023-02-23T00:16:54;64.63;;;41.15;;
34499;SDS011;20745;50.882;6.962;2023-02-23T00:19:22;69.28;;;42.80;;
34499;SDS011;20745;50.882;6.962;2023-02-23T00:21:50;68.75;;;41.25;;
34499;SDS011;20745;50.882;6.962;2023-02-23T00:24:17;68.32;;;41.97;;
34499;SDS011;20745;50.882;6.962;2023-02-23T00:26:45;70.50;;;41.90;;
34499;SDS011;20745;50.882;6.962;2023-02-23T00:29:13;68.82;;;44.10;;
34499;SDS011;20745;50.882;6.962;2023-02-23T00:31:43;69.60;;;45.22;;
34499;SDS011;20745;50.882;6.962;2023-02-23T00:34:10;73.10;;;44.08;;
34499;SDS011;20745;50.882;6.962;2023-02-23T00:36:38;71.65;;;42.65;;
34499;SDS011;20745;50.882;6.962;2023-02-23T00:39:06;73.45;;;44.35;;
34499;SDS011;20745;50.882;6.962;2023-02-23T00:41:50;69.25;;;43.13;;
34499;SDS011;20745;50.882;6.962;2023-02-23T00:44:21;66.70;;;42.38;;
34499;SDS011;20745;50.882;6.962;2023-02-23T00:46:49;69.53;;;44.10;;
34499;SDS011;20745;50.882;6.962;2023-02-23T00:49:17;69.40;;;43.77;;
34499;SDS011;20745;50.882;6.962;2023-02-23T00:51:45;68.70;;;42.75;;
34499;SDS011;20745;50.882;6.962;2023-02-23T00:54:13;70.97;;;44.17;;
34499;SDS011;20745;50.882;6.962;2023-02-23T00:56:41;73.60;;;45.15;;
34499;SDS011;20745;50.882;6.962;2023-02-23T00:59:08;73.57;;;43.25;;
34499;SDS011;20745;50.882;6.962;2023-02-23T01:01:35;68.57;;;42.53;;
34499;SDS011;20745;50.882;6.962;2023-02-23T01:04:03;69.05;;;41.67;;
34499;SDS011;20745;50.882;6.962;2023-02-23T01:06:30;71.05;;;43.00;;
34499;SDS011;20745;50.882;6.962;2023-02-23T01:08:57;69.53;;;43.33;;
34499;SDS011;20745;50.882;6.962;2023-02-23T01:11:27;68.13;;;43.38;;
34499;SDS011;20745;50.882;6.962;2023-02-23T01:13:56;69.00;;;44.63;;
34499;SDS011;20745;50.882;6.962;2023-02-23T01:16:26;67.32;;;43.45;;
34499;SDS011;20745;50.882;6.962;2023-02-23T01:18:55;68.43;;;42.88;;
34499;SDS011;20745;50.882;6.962;2023-02-23T01:21:24;70.88;;;44.15;;
34499;SDS011;20745;50.882;6.962;2023-02-23T01:23:51;66.15;;;43.72;;
34499;SDS011;20745;50.882;6.962;2023-02-23T01:26:19;71.97;;;43.80;;
34499;SDS011;20745;50.882;6.962;2023-02-23T01:28:52;73.00;;;44.63;;
34499;SDS011;20745;50.882;6.962;2023-02-23T01:31:22;76.50;;;45.58;;
34499;SDS011;20745;50.882;6.962;2023-02-23T01:33:54;78.90;;;46.13;;
34499;SDS011;20745;50.882;6.962;2023-02-23T01:36:22;76.88;;;47.15;;
34499;SDS011;20745;50.882;6.962;2023-02-23T01:38:51;78.28;;;46.88;;
34499;SDS011;20745;50.882;6.962;2023-02-23T01:41:22;80.43;;;47.33;;
34499;SDS011;20745;50.882;6.962;2023-02-23T01:45:00;75.88;;;47.78;;
34499;SDS011;20745;50.882;6.962;2023-02-23T01:49:07;75.78;;;46.95;;
34499;SDS011;20745;50.882;6.962;2023-02-23T01:51:51;76.68;;;47.55;;
34499;SDS011;20745;50.882;6.962;2023-02-23T01:54:25;80.20;;;50.15;;
34499;SDS011;20745;50.882;6.962;2023-02-23T01:56:57;77.85;;;48.42;;
34499;SDS011;20745;50.882;6.962;2023-02-23T01:59:28;74.78;;;47.15;;
34499;SDS011;20745;50.882;6.962;2023-02-23T02:01:59;82.93;;;47.20;;
34499;SDS011;20745;50.882;6.962;2023-02-23T02:04:30;83.40;;;47.78;;
34499;SDS011;20745;50.882;6.962;2023-02-23T02:12:25;80.03;;;48.30;;
34499;SDS011;20745;50.882;6.962;2023-02-23T02:15:12;85.90;;;48.53;;
34499;SDS011;20745;50.882;6.962;2023-02-23T02:18:24;80.82;;;48.05;;
34499;SDS011;20745;50.882;6.962;2023-02-23T02:33:14;84.95;;;50.55;;
34499;SDS011;20745;50.882;6.962;2023-02-23T02:38:52;80.35;;;50.00;;
34499;SDS011;20745;50.882;6.962;2023-02-23T02:41:27;86.97;;;50.25;;
34499;SDS011;20745;50.882;6.962;2023-02-23T02:44:10;80.93;;;50.97;;
34499;SDS011;20745;50.882;6.962;2023-02-23T02:46:45;86.55;;;50.55;;
34499;SDS011;20745;50.882;6.962;2023-02-23T02:49:19;85.07;;;51.10;;
34499;SDS011;20745;50.882;6.962;2023-02-23T02:51:55;83.28;;;50.25;;
34499;SDS011;20745;50.882;6.962;2023-02-23T02:54:36;87.13;;;51.83;;
34499;SDS011;20745;50.882;6.962;2023-02-23T02:57:04;85.65;;;51.75;;
34499;SDS011;20745;50.882;6.962;2023-02-23T02:59:41;90.72;;;54.55;;
34499;SDS011;20745;50.882;6.962;2023-02-23T03:02:27;97.18;;;55.05;;
34499;SDS011;20745;50.882;6.962;2023-02-23T03:05:16;92.13;;;56.05;;
34499;SDS011;20745;50.882;6.962;2023-02-23T03:08:16;92.88;;;56.97;;
34499;SDS011;20745;50.882;6.962;2023-02-23T03:11:12;95.13;;;54.38;;
34499;SDS011;20745;50.882;6.962;2023-02-23T03:14:22;93.72;;;55.33;;
34499;SDS011;20745;50.882;6.962;2023-02-23T03:17:51;89.03;;;53.42;;
34499;SDS011;20745;50.882;6.962;2023-02-23T03:23:18;95.22;;;55.78;;
34499;SDS011;20745;50.882;6.962;2023-02-23T03:26:12;91.45;;;56.35;;
34499;SDS011;20745;50.882;6.962;2023-02-23T03:29:11;91.05;;;57.25;;
34499;SDS011;20745;50.882;6.962;2023-02-23T03:32:06;99.72;;;60.22;;
34499;SDS011;20745;50.882;6.962;2023-02-23T03:35:00;100.70;;;60.05;;
34499;SDS011;20745;50.882;6.962;2023-02-23T03:37:57;96.07;;;56.50;;
34499;SDS011;20745;50.882;6.962;2023-02-23T03:40:49;94.45;;;57.45;;
34499;SDS011;20745;50.882;6.962;2023-02-23T03:43:37;94.55;;;55.78;;
34499;SDS011;20745;50.882;6.962;2023-02-23T03:46:28;96.95;;;56.97;;
34499;SDS011;20745;50.882;6.962;2023-02-23T03:49:15;96.50;;;57.20;;
34499;SDS011;20745;50.882;6.962;2023-02-23T03:52:12;101.78;;;60.08;;
34499;SDS011;20745;50.882;6.962;2023-02-23T03:55:03;97.45;;;56.83;;
34499;SDS011;20745;50.882;6.962;2023-02-23T03:57:54;96.35;;;57.60;;
34499;SDS011;20745;50.882;6.962;2023-02-23T04:00:46;99.68;;;58.03;;
34499;SDS011;20745;50.882;6.962;2023-02-23T04:03:34;100.82;;;59.30;;
34499;SDS011;20745;50.882;6.962;2023-02-23T04:09:10;101.63;;;58.17;;
34499;SDS011;20745;50.882;6.962;2023-02-23T04:15:10;101.55;;;59.83;;
34499;SDS011;20745;50.882;6.962;2023-02-23T04:17:46;97.85;;;58.45;;
34499;SDS011;20745;50.882;6.962;2023-02-23T04:20:13;97.35;;;57.28;;
34499;SDS011;20745;50.882;6.962;2023-02-23T04:22:40;94.63;;;56.60;;
34499;SDS011;20745;50.882;6.962;2023-02-23T04:25:06;92.90;;;57.50;;
34499;SDS011;20745;50.882;6.962;2023-02-23T04:27:34;95.22;;;58.20;;
34499;SDS011;20745;50.882;6.962;2023-02-23T04:30:01;93.43;;;58.45;;
34499;SDS011;20745;50.882;6.962;2023-02-23T04:32:29;98.35;;;59.58;;
34499;SDS011;20745;50.882;6.962;2023-02-23T04:34:56;94.60;;;58.20;;
34499;SDS011;20745;50.882;6.962;2023-02-23T04:37:22;93.25;;;56.72;;
34499;SDS011;20745;50.882;6.962;2023-02-23T04:39:49;96.65;;;58.67;;
34499;SDS011;20745;50.882;6.962;2023-02-23T04:42:16;94.43;;;58.45;;
34499;SDS011;20745;50.882;6.962;2023-02-23T04:44:42;97.50;;;59.17;;
34499;SDS011;20745;50.882;6.962;2023-02-23T04:47:10;102.00;;;59.13;;
34499;SDS011;20745;50.882;6.962;2023-02-23T04:49:37;99.88;;;59.17;;
34499;SDS011;20745;50.882;6.962;2023-02-23T04:52:03;104.22;;;60.88;;
34499;SDS011;20745;50.882;6.962;2023-02-23T04:54:30;91.57;;;58.60;;
34499;SDS011;20745;50.882;6.962;2023-02-23T04:56:57;103.72;;;59.28;;
34499;SDS011;20745;50.882;6.962;2023-02-23T04:59:23;99.22;;;59.15;;
34499;SDS011;20745;50.882;6.962;2023-02-23T05:01:50;96.13;;;59.28;;
34499;SDS011;20745;50.882;6.962;2023-02-23T05:04:16;93.32;;;56.67;;
34499;SDS011;20745;50.882;6.962;2023-02-23T05:06:43;98.60;;;57.58;;
34499;SDS011;20745;50.882;6.962;2023-02-23T05:09:09;93.30;;;56.92;;
34499;SDS011;20745;50.882;6.962;2023-02-23T05:11:36;90.30;;;55.42;;
34499;SDS011;20745;50.882;6.962;2023-02-23T05:14:03;92.50;;;58.00;;
34499;SDS011;20745;50.882;6.962;2023-02-23T05:16:30;96.47;;;58.35;;
34499;SDS011;20745;50.882;6.962;2023-02-23T05:18:56;93.72;;;56.00;;
34499;SDS011;20745;50.882;6.962;2023-02-23T05:21:23;89.15;;;56.35;;
34499;SDS011;20745;50.882;6.962;2023-02-23T05:23:50;88.18;;;54.45;;
34499;SDS011;20745;50.882;6.962;2023-02-23T05:26:16;83.78;;;52.83;;
34499;SDS011;20745;50.882;6.962;2023-02-23T05:28:43;89.10;;;53.83;;
34499;SDS011;20745;50.882;6.962;2023-02-23T05:31:10;88.53;;;53.67;;
34499;SDS011;20745;50.882;6.962;2023-02-23T05:33:37;87.47;;;53.40;;
34499;SDS011;20745;50.882;6.962;2023-02-23T05:36:11;89.95;;;54.53;;
34499;SDS011;20745;50.882;6.962;2023-02-23T05:41:07;90.68;;;54.25;;
34499;SDS011;20745;50.882;6.962;2023-02-23T05:43:35;89.80;;;54.17;;
34499;SDS011;20745;50.882;6.962;2023-02-23T05:46:35;87.88;;;54.20;;
34499;SDS011;20745;50.882;6.962;2023-02-23T05:48:56;92.53;;;54.65;;
34499;SDS011;20745;50.882;6.962;2023-02-23T05:51:25;92.22;;;52.85;;
34499;SDS011;20745;50.882;6.962;2023-02-23T05:53:53;92.82;;;54.78;;
34499;SDS011;20745;50.882;6.962;2023-02-23T05:56:19;93.00;;;53.42;;
34499;SDS011;20745;50.882;6.962;2023-02-23T05:58:50;96.30;;;54.10;;
34499;SDS011;20745;50.882;6.962;2023-02-23T06:01:21;90.45;;;53.08;;
34499;SDS011;20745;50.882;6.962;2023-02-23T06:03:48;101.57;;;55.10;;
34499;SDS011;20745;50.882;6.962;2023-02-23T06:06:15;103.68;;;56.47;;
34499;SDS011;20745;50.882;6.962;2023-02-23T06:08:42;97.15;;;54.83;;
34499;SDS011;20745;50.882;6.962;2023-02-23T06:11:09;99.03;;;56.00;;
34499;SDS011;20745;50.882;6.962;2023-02-23T06:13:36;98.35;;;54.40;;
34499;SDS011;20745;50.882;6.962;2023-02-23T06:16:03;99.10;;;55.22;;
34499;SDS011;20745;50.882;6.962;2023-02-23T06:18:30;98.63;;;53.85;;
34499;SDS011;20745;50.882;6.962;2023-02-23T06:21:00;98.78;;;54.33;;
34499;SDS011;20745;50.882;6.962;2023-02-23T06:23:29;95.43;;;53.28;;
34499;SDS011;20745;50.882;6.962;2023-02-23T06:25:56;94.28;;;51.60;;
34499;SDS011;20745;50.882;6.962;2023-02-23T06:28:25;99.25;;;53.00;;
34499;SDS011;20745;50.882;6.962;2023-02-23T06:30:52;90.75;;;51.40;;
34499;SDS011;20745;50.882;6.962;2023-02-23T06:33:20;93.75;;;53.85;;
34499;SDS011;20745;50.882;6.962;2023-02-23T06:35:48;91.25;;;51.25;;
34499;SDS011;20745;50.882;6.962;2023-02-23T06:38:14;91.90;;;50.30;;
34499;SDS011;20745;50.882;6.962;2023-02-23T06:40:41;87.38;;;48.92;;
34499;SDS011;20745;50.882;6.962;2023-02-23T06:43:08;91.65;;;49.70;;
34499;SDS011;20745;50.882;6.962;2023-02-23T06:45:35;93.68;;;49.92;;
34499;SDS011;20745;50.882;6.962;2023-02-23T06:48:01;87.38;;;49.58;;
34499;SDS011;20745;50.882;6.962;2023-02-23T06:50:28;93.63;;;51.17;;
34499;SDS011;20745;50.882;6.962;2023-02-23T06:52:54;90.18;;;51.05;;
34499;SDS011;20745;50.882;6.962;2023-02-23T06:55:22;91.78;;;51.90;;
34499;SDS011;20745;50.882;6.962;2023-02-23T06:57:49;83.47;;;47.72;;
34499;SDS011;20745;50.882;6.962;2023-02-23T07:00:17;83.30;;;49.03;;
34499;SDS011;20745;50.882;6.962;2023-02-23T07:02:43;85.50;;;48.92;;
34499;SDS011;20745;50.882;6.962;2023-02-23T07:05:10;84.20;;;48.00;;
34499;SDS011;20745;50.882;6.962;2023-02-23T07:07:37;80.20;;;46.22;;
34499;SDS011;20745;50.882;6.962;2023-02-23T07:10:04;77.57;;;45.42;;
34499;SDS011;20745;50.882;6.962;2023-02-23T07:12:31;79.47;;;46.80;;
34499;SDS011;20745;50.882;6.962;2023-02-23T07:14:58;75.53;;;45.33;;
34499;SDS011;20745;50.882;6.962;2023-02-23T07:17:25;83.45;;;47.92;;
34499;SDS011;20745;50.882;6.962;2023-02-23T07:19:51;69.70;;;43.83;;
34499;SDS011;20745;50.882;6.962;2023-02-23T07:22:17;74.88;;;45.00;;
34499;SDS011;20745;50.882;6.962;2023-02-23T07:24:44;74.38;;;45.58;;
34499;SDS011;20745;50.882;6.962;2023-02-23T07:27:11;78.68;;;45.30;;
34499;SDS011;20745;50.882;6.962;2023-02-23T07:29:37;77.25;;;45.05;;
34499;SDS011;20745;50.882;6.962;2023-02-23T07:32:04;74.00;;;43.53;;
34499;SDS011;20745;50.882;6.962;2023-02-23T07:34:31;70.15;;;42.90;;
34499;SDS011;20745;50.882;6.962;2023-02-23T07:36:58;78.13;;;45.10;;
34499;SDS011;20745;50.882;6.962;2023-02-23T07:39:24;73.45;;;41.92;;
34499;SDS011;20745;50.882;6.962;2023-02-23T07:41:51;76.88;;;44.10;;
34499;SDS011;20745;50.882;6.962;2023-02-23T07:44:18;73.68;;;44.03;;
34499;SDS011;20745;50.882;6.962;2023-02-23T07:46:44;77.43;;;43.63;;
34499;SDS011;20745;50.882;6.962;2023-02-23T07:49:11;78.65;;;43.53;;
34499;SDS011;20745;50.882;6.962;2023-02-23T07:51:38;76.40;;;45.13;;
34499;SDS011;20745;50.882;6.962;2023-02-23T07:54:05;82.90;;;44.60;;
34499;SDS011;20745;50.882;6.962;2023-02-23T07:56:32;75.85;;;44.65;;
34499;SDS011;20745;50.882;6.962;2023-02-23T07:58:58;73.82;;;42.78;;
34499;SDS011;20745;50.882;6.962;2023-02-23T08:01:25;73.25;;;42.22;;
34499;SDS011;20745;50.882;6.962;2023-02-23T08:03:51;77.70;;;44.85;;
34499;SDS011;20745;50.882;6.962;2023-02-23T08:06:18;76.13;;;43.78;;
34499;SDS011;20745;50.882;6.962;2023-02-23T08:08:45;73.57;;;43.17;;
34499;SDS011;20745;50.882;6.962;2023-02-23T08:11:12;74.93;;;42.10;;
34499;SDS011;20745;50.882;6.962;2023-02-23T08:13:38;72.93;;;42.75;;
34499;SDS011;20745;50.882;6.962;2023-02-23T08:16:05;73.68;;;43.55;;
34499;SDS011;20745;50.882;6.962;2023-02-23T08:18:32;73.80;;;42.50;;
34499;SDS011;20745;50.882;6.962;2023-02-23T08:20:59;76.10;;;42.58;;
34499;SDS011;20745;50.882;6.962;2023-02-23T08:23:30;73.72;;;40.53;;
34499;SDS011;20745;50.882;6.962;2023-02-23T08:25:59;73.75;;;42.22;;
34499;SDS011;20745;50.882;6.962;2023-02-23T08:28:26;72.43;;;41.67;;
34499;SDS011;20745;50.882;6.962;2023-02-23T08:30:54;77.80;;;44.05;;
34499;SDS011;20745;50.882;6.962;2023-02-23T08:33:20;78.10;;;43.72;;
34499;SDS011;20745;50.882;6.962;2023-02-23T08:35:47;71.57;;;41.60;;
34499;SDS011;20745;50.882;6.962;2023-02-23T08:38:14;75.35;;;42.72;;
34499;SDS011;20745;50.882;6.962;2023-02-23T08:40:41;70.78;;;41.47;;
34499;SDS011;20745;50.882;6.962;2023-02-23T08:43:08;77.10;;;41.90;;
34499;SDS011;20745;50.882;6.962;2023-02-23T08:45:35;76.00;;;43.28;;
34499;SDS011;20745;50.882;6.962;2023-02-23T08:48:04;71.28;;;39.90;;
34499;SDS011;20745;50.882;6.962;2023-02-23T08:50:31;70.47;;;41.20;;
34499;SDS011;20745;50.882;6.962;2023-02-23T08:52:58;77.65;;;41.88;;
34499;SDS011;20745;50.882;6.962;2023-02-23T08:55:25;74.93;;;42.38;;
34499;SDS011;20745;50.882;6.962;2023-02-23T08:57:51;76.35;;;40.83;;
34499;SDS011;20745;50.882;6.962;2023-02-23T09:00:18;75.65;;;41.78;;
34499;SDS011;20745;50.882;6.962;2023-02-23T09:02:45;73.57;;;41.75;;
34499;SDS011;20745;50.882;6.962;2023-02-23T09:07:41;77.45;;;40.78;;
34499;SDS011;20745;50.882;6.962;2023-02-23T09:10:14;76.05;;;41.88;;
34499;SDS011;20745;50.882;6.962;2023-02-23T09:12:42;70.18;;;40.75;;
34499;SDS011;20745;50.882;6.962;2023-02-23T09:15:08;71.72;;;39.15;;
34499;SDS011;20745;50.882;6.962;2023-02-23T09:17:35;69.45;;;39.50;;
34499;SDS011;20745;50.882;6.962;2023-02-23T09:20:03;71.30;;;39.92;;
34499;SDS011;20745;50.882;6.962;2023-02-23T09:22:30;68.95;;;37.45;;
34499;SDS011;20745;50.882;6.962;2023-02-23T09:24:57;71.45;;;40.17;;
34499;SDS011;20745;50.882;6.962;2023-02-23T09:27:24;69.63;;;39.65;;
34499;SDS011;20745;50.882;6.962;2023-02-23T09:29:50;61.60;;;37.25;;
34499;SDS011;20745;50.882;6.962;2023-02-23T09:32:17;63.00;;;36.30;;
34499;SDS011;20745;50.882;6.962;2023-02-23T09:34:43;62.22;;;36.25;;
34499;SDS011;20745;50.882;6.962;2023-02-23T09:37:10;62.95;;;35.25;;
34499;SDS011;20745;50.882;6.962;2023-02-23T09:39:36;66.75;;;36.40;;
34499;SDS011;20745;50.882;6.962;2023-02-23T09:44:41;63.38;;;33.95;;
34499;SDS011;20745;50.882;6.962;2023-02-23T09:47:26;58.42;;;32.70;;
34499;SDS011;20745;50.882;6.962;2023-02-23T09:49:58;62.13;;;34.45;;
34499;SDS011;20745;50.882;6.962;2023-02-23T09:52:35;66.80;;;36.78;;
34499;SDS011;20745;50.882;6.962;2023-02-23T09:55:08;63.08;;;35.38;;
34499;SDS011;20745;50.882;6.962;2023-02-23T09:57:37;67.53;;;36.65;;
34499;SDS011;20745;50.882;6.962;2023-02-23T10:00:10;69.63;;;37.67;;
34499;SDS011;20745;50.882;6.962;2023-02-23T10:05:46;70.78;;;38.17;;
34499;SDS011;20745;50.882;6.962;2023-02-23T10:11:20;72.20;;;39.38;;
34499;SDS011;20745;50.882;6.962;2023-02-23T10:13:57;74.32;;;39.22;;
34499;SDS011;20745;50.882;6.962;2023-02-23T10:19:20;64.85;;;36.30;;
34499;SDS011;20745;50.882;6.962;2023-02-23T10:22:01;61.88;;;34.92;;
34499;SDS011;20745;50.882;6.962;2023-02-23T10:24:54;67.43;;;35.78;;
34499;SDS011;20745;50.882;6.962;2023-02-23T10:27:23;61.05;;;34.47;;
34499;SDS011;20745;50.882;6.962;2023-02-23T10:29:56;60.63;;;33.15;;
34499;SDS011;20745;50.882;6.962;2023-02-23T10:32:31;62.80;;;35.53;;
34499;SDS011;20745;50.882;6.962;2023-02-23T10:35:10;60.38;;;33.50;;
34499;SDS011;20745;50.882;6.962;2023-02-23T10:37:38;57.45;;;32.92;;
34499;SDS011;20745;50.882;6.962;2023-02-23T10:40:05;63.17;;;34.33;;
34499;SDS011;20745;50.882;6.962;2023-02-23T10:42:33;58.15;;;33.47;;
34499;SDS011;20745;50.882;6.962;2023-02-23T10:44:59;64.68;;;33.28;;
34499;SDS011;20745;50.882;6.962;2023-02-23T10:47:27;58.92;;;31.98;;
34499;SDS011;20745;50.882;6.962;2023-02-23T10:49:57;62.25;;;32.78;;
34499;SDS011;20745;50.882;6.962;2023-02-23T10:52:32;61.00;;;34.78;;
34499;SDS011;20745;50.882;6.962;2023-02-23T10:55:30;59.55;;;34.38;;
34499;SDS011;20745;50.882;6.962;2023-02-23T10:58:38;59.22;;;33.75;;
34499;SDS011;20745;50.882;6.962;2023-02-23T11:03:23;60.53;;;32.42;;
34499;SDS011;20745;50.882;6.962;2023-02-23T11:06:29;54.63;;;31.80;;
34499;SDS011;20745;50.882;6.962;2023-02-23T11:12:22;52.72;;;28.27;;
34499;SDS011;20745;50.882;6.962;2023-02-23T11:14:57;46.28;;;28.75;;
34499;SDS011;20745;50.882;6.962;2023-02-23T11:17:36;53.65;;;29.30;;
34499;SDS011;20745;50.882;6.962;2023-02-23T11:20:05;45.80;;;26.75;;
34499;SDS011;20745;50.882;6.962;2023-02-23T11:22:43;46.97;;;27.27;;
34499;SDS011;20745;50.882;6.962;2023-02-23T11:25:13;47.20;;;27.52;;
34499;SDS011;20745;50.882;6.962;2023-02-23T11:27:46;46.60;;;28.65;;
34499;SDS011;20745;50.882;6.962;2023-02-23T11:30:18;48.15;;;26.95;;
34499;SDS011;20745;50.882;6.962;2023-02-23T11:32:56;45.88;;;27.83;;
34499;SDS011;20745;50.882;6.962;2023-02-23T11:35:28;46.63;;;27.17;;
34499;SDS011;20745;50.882;6.962;2023-02-23T11:37:56;46.72;;;28.58;;
34499;SDS011;20745;50.882;6.962;2023-02-23T11:45:43;55.38;;;32.22;;
34499;SDS011;20745;50.882;6.962;2023-02-23T11:48:27;66.20;;;34.47;;
34499;SDS011;20745;50.882;6.962;2023-02-23T11:50:58;63.28;;;34.67;;
34499;SDS011;20745;50.882;6.962;2023-02-23T11:53:29;66.25;;;36.05;;
34499;SDS011;20745;50.882;6.962;2023-02-23T11:56:00;61.15;;;33.80;;
34499;SDS011;20745;50.882;6.962;2023-02-23T12:01:05;61.85;;;33.40;;
34499;SDS011;20745;50.882;6.962;2023-02-23T12:03:37;61.70;;;33.53;;
34499;SDS011;20745;50.882;6.962;2023-02-23T12:06:10;57.75;;;32.45;;
34499;SDS011;20745;50.882;6.962;2023-02-23T12:08:38;58.20;;;31.83;;
34499;SDS011;20745;50.882;6.962;2023-02-23T12:11:19;59.47;;;31.60;;
34499;SDS011;20745;50.882;6.962;2023-02-23T12:13:53;59.50;;;31.92;;
34499;SDS011;20745;50.882;6.962;2023-02-23T12:16:27;61.67;;;32.72;;
34499;SDS011;20745;50.882;6.962;2023-02-23T12:18:59;67.70;;;35.75;;
34499;SDS011;20745;50.882;6.962;2023-02-23T12:21:33;64.82;;;35.38;;
34499;SDS011;20745;50.882;6.962;2023-02-23T12:26:41;71.45;;;38.58;;
34499;SDS011;20745;50.882;6.962;2023-02-23T12:29:54;72.20;;;37.80;;
34499;SDS011;20745;50.882;6.962;2023-02-23T12:32:25;73.30;;;37.03;;
34499;SDS011;20745;50.882;6.962;2023-02-23T12:35:00;77.65;;;38.75;;
34499;SDS011;20745;50.882;6.962;2023-02-23T12:37:50;75.65;;;37.17;;
34499;SDS011;20745;50.882;6.962;2023-02-23T12:40:26;69.50;;;36.55;;
34499;SDS011;20745;50.882;6.962;2023-02-23T12:43:06;72.82;;;35.83;;
34499;SDS011;20745;50.882;6.962;2023-02-23T12:45:45;72.97;;;34.67;;
34499;SDS011;20745;50.882;6.962;2023-02-23T12:48:32;72.90;;;33.75;;
34499;SDS011;20745;50.882;6.962;2023-02-23T12:51:42;72.07;;;33.22;;
34499;SDS011;20745;50.882;6.962;2023-02-23T12:54:09;69.10;;;32.25;;
34499;SDS011;20745;50.882;6.962;2023-02-23T12:57:02;74.32;;;34.83;;
34499;SDS011;20745;50.882;6.962;2023-02-23T13:05:08;73.30;;;35.45;;
34499;SDS011;20745;50.882;6.962;2023-02-23T13:07:44;73.88;;;34.63;;
34499;SDS011;20745;50.882;6.962;2023-02-23T13:16:22;78.60;;;34.97;;
34499;SDS011;20745;50.882;6.962;2023-02-23T13:21:43;69.05;;;33.53;;
34499;SDS011;20745;50.882;6.962;2023-02-23T13:26:54;71.53;;;33.50;;
34499;SDS011;20745;50.882;6.962;2023-02-23T13:32:08;69.30;;;32.63;;
34499;SDS011;20745;50.882;6.962;2023-02-23T13:34:40;70.13;;;32.58;;
34499;SDS011;20745;50.882;6.962;2023-02-23T13:37:10;67.78;;;32.50;;
34499;SDS011;20745;50.882;6.962;2023-02-23T13:39:55;67.97;;;33.47;;
34499;SDS011;20745;50.882;6.962;2023-02-23T13:42:35;68.53;;;31.52;;
34499;SDS011;20745;50.882;6.962;2023-02-23T13:45:15;71.07;;;33.45;;
34499;SDS011;20745;50.882;6.962;2023-02-23T13:48:06;67.13;;;32.35;;
34499;SDS011;20745;50.882;6.962;2023-02-23T13:50:49;69.68;;;31.23;;
34499;SDS011;20745;50.882;6.962;2023-02-23T13:53:32;70.95;;;33.15;;
34499;SDS011;20745;50.882;6.962;2023-02-23T13:56:08;70.25;;;32.33;;
34499;SDS011;20745;50.882;6.962;2023-02-23T13:58:47;70.15;;;32.78;;
34499;SDS011;20745;50.882;6.962;2023-02-23T14:01:19;66.97;;;30.40;;
34499;SDS011;20745;50.882;6.962;2023-02-23T14:03:53;70.45;;;32.22;;
34499;SDS011;20745;50.882;6.962;2023-02-23T14:06:24;69.18;;;31.27;;
34499;SDS011;20745;50.882;6.962;2023-02-23T14:09:14;69.88;;;30.20;;
34499;SDS011;20745;50.882;6.962;2023-02-23T14:11:47;62.72;;;27.85;;
34499;SDS011;20745;50.882;6.962;2023-02-23T14:17:08;55.58;;;25.10;;
34499;SDS011;20745;50.882;6.962;2023-02-23T14:19:39;54.75;;;24.80;;
34499;SDS011;20745;50.882;6.962;2023-02-23T14:22:21;51.92;;;24.13;;
34499;SDS011;20745;50.882;6.962;2023-02-23T14:27:56;58.33;;;24.13;;
34499;SDS011;20745;50.882;6.962;2023-02-23T14:30:27;53.90;;;24.00;;
34499;SDS011;20745;50.882;6.962;2023-02-23T14:32:59;45.60;;;20.57;;
34499;SDS011;20745;50.882;6.962;2023-02-23T14:35:42;50.63;;;23.13;;
34499;SDS011;20745;50.882;6.962;2023-02-23T14:38:10;50.35;;;21.77;;
34499;SDS011;20745;50.882;6.962;2023-02-23T14:40:50;48.13;;;21.98;;
34499;SDS011;20745;50.882;6.962;2023-02-23T14:46:00;50.13;;;22.23;;
34499;SDS011;20745;50.882;6.962;2023-02-23T14:48:31;49.20;;;21.00;;
34499;SDS011;20745;50.882;6.962;2023-02-23T14:51:11;43.28;;;21.60;;
34499;SDS011;20745;50.882;6.962;2023-02-23T14:53:50;48.08;;;21.75;;
34499;SDS011;20745;50.882;6.962;2023-02-23T14:56:19;51.80;;;22.35;;
34499;SDS011;20745;50.882;6.962;2023-02-23T14:58:49;45.53;;;20.90;;
34499;SDS011;20745;50.882;6.962;2023-02-23T15:01:30;42.92;;;21.77;;
34499;SDS011;20745;50.882;6.962;2023-02-23T15:04:09;47.13;;;22.85;;
34499;SDS011;20745;50.882;6.962;2023-02-23T15:06:38;54.60;;;24.20;;
34499;SDS011;20745;50.882;6.962;2023-02-23T15:09:07;46.05;;;21.58;;
34499;SDS011;20745;50.882;6.962;2023-02-23T15:11:46;46.33;;;21.77;;
34499;SDS011;20745;50.882;6.962;2023-02-23T15:14:15;49.63;;;22.55;;
34499;SDS011;20745;50.882;6.962;2023-02-23T15:16:53;42.70;;;20.50;;
34499;SDS011;20745;50.882;6.962;2023-02-23T15:19:30;46.65;;;22.80;;
34499;SDS011;20745;50.882;6.962;2023-02-23T15:21:59;46.35;;;22.15;;
34499;SDS011;20745;50.882;6.962;2023-02-23T15:24:32;46.23;;;21.50;;
34499;SDS011;20745;50.882;6.962;2023-02-23T15:27:14;47.00;;;21.52;;
34499;SDS011;20745;50.882;6.962;2023-02-23T15:29:42;46.33;;;21.88;;
34499;SDS011;20745;50.882;6.962;2023-02-23T15:32:10;44.70;;;21.58;;
34499;SDS011;20745;50.882;6.962;2023-02-23T15:34:41;50.28;;;21.38;;
34499;SDS011;20745;50.882;6.962;2023-02-23T15:39:47;43.40;;;20.02;;
34499;SDS011;20745;50.882;6.962;2023-02-23T15:42:21;39.92;;;20.10;;
34499;SDS011;20745;50.882;6.962;2023-02-23T15:45:00;40.65;;;19.08;;
34499;SDS011;20745;50.882;6.962;2023-02-23T15:47:36;42.40;;;19.63;;
34499;SDS011;20745;50.882;6.962;2023-02-23T15:50:05;49.80;;;20.50;;
34499;SDS011;20745;50.882;6.962;2023-02-23T15:52:50;44.88;;;20.27;;
34499;SDS011;20745;50.882;6.962;2023-02-23T15:55:24;44.55;;;20.60;;
34499;SDS011;20745;50.882;6.962;2023-02-23T15:57:55;47.17;;;20.42;;
34499;SDS011;20745;50.882;6.962;2023-02-23T16:00:26;45.00;;;19.27;;
34499;SDS011;20745;50.882;6.962;2023-02-23T16:02:59;42.38;;;20.85;;
34499;SDS011;20745;50.882;6.962;2023-02-23T16:05:28;41.85;;;19.98;;
34499;SDS011;20745;50.882;6.962;2023-02-23T16:08:17;43.25;;;19.92;;
34499;SDS011;20745;50.882;6.962;2023-02-23T16:10:48;43.00;;;20.05;;
34499;SDS011;20745;50.882;6.962;2023-02-23T16:13:22;41.88;;;20.15;;
34499;SDS011;20745;50.882;6.962;2023-02-23T16:15:49;44.97;;;20.75;;
34499;SDS011;20745;50.882;6.962;2023-02-23T16:18:20;45.10;;;21.65;;
34499;SDS011;20745;50.882;6.962;2023-02-23T16:20:52;45.50;;;19.70;;
34499;SDS011;20745;50.882;6.962;2023-02-23T16:23:26;45.33;;;20.60;;
34499;SDS011;20745;50.882;6.962;2023-02-23T16:26:22;47.97;;;22.33;;
34499;SDS011;20745;50.882;6.962;2023-02-23T16:28:56;50.30;;;21.20;;
34499;SDS011;20745;50.882;6.962;2023-02-23T16:34:17;53.17;;;22.52;;